Terminal Aerodrome Forecast
Issued by NWS

Home | Current Version | Previous Version | Text Only | Print | Product List | Glossary On
Versions: 1 2 3 4 5 6 7 8 9 10 11 12 13
000
FTUS46 KSTO 132300
TAFRDD
TAF
KRDD 132330Z 1400/1424 18010KT P6SM SCT250
     FM140400 33005KT P6SM FEW250
     FM141500 35010KT P6SM SKC
     FM142100 18008KT P6SM SKC=

USA.gov is the U.S. government's official web portal to all federal, state and local government web resources and services.